createdAt,value
2019-03-28T00:04:38.100Z,17.73
2019-03-28T00:09:41.166Z,17.37
2019-03-28T00:14:44.518Z,18.30
2019-03-28T00:19:47.919Z,17.93
2019-03-28T00:24:55.667Z,18.20
2019-03-28T00:29:58.742Z,18.37
2019-03-28T00:35:02.074Z,18.43
2019-03-28T00:40:06.510Z,19.20
2019-03-28T00:45:09.582Z,18.27
2019-03-28T00:50:12.932Z,18.23
2019-03-28T00:55:16.634Z,18.00
2019-03-28T01:00:19.709Z,18.57
2019-03-28T01:05:23.102Z,18.83
2019-03-28T01:10:26.222Z,19.30
2019-03-28T01:15:29.591Z,17.87
2019-03-28T01:20:32.993Z,19.47
2019-03-28T01:25:36.715Z,19.23
2019-03-28T01:30:39.790Z,19.03
2019-03-28T01:35:43.437Z,18.90
2019-03-28T01:40:47.172Z,19.50
2019-03-28T01:45:50.557Z,19.13
2019-03-28T01:50:53.637Z,18.83
2019-03-28T01:55:57.024Z,19.17
2019-03-28T02:01:02.861Z,19.20
2019-03-28T02:06:06.086Z,18.67
2019-03-28T02:11:09.157Z,19.80
2019-03-28T02:16:12.569Z,18.60
2019-03-28T02:21:16.222Z,18.23
2019-03-28T02:26:19.551Z,19.30
2019-03-28T02:31:23.270Z,20.47
2019-03-28T02:36:26.651Z,19.90
2019-03-28T02:41:29.727Z,17.97
2019-03-28T02:46:33.107Z,19.90
2019-03-28T02:51:36.536Z,19.60
2019-03-28T02:56:39.940Z,19.67
2019-03-28T03:01:43.330Z,21.30
2019-03-28T03:06:46.667Z,22.80
2019-03-28T03:11:50.070Z,22.13
2019-03-28T03:16:53.466Z,20.47
2019-03-28T03:21:56.557Z,20.83
2019-03-28T03:27:00.045Z,22.00
2019-03-28T03:32:03.759Z,22.30
2019-03-28T03:37:06.883Z,22.40
2019-03-28T03:42:10.267Z,22.17
2019-03-28T03:47:13.938Z,22.17
2019-03-28T03:52:17.006Z,23.30
2019-03-28T03:57:20.700Z,23.63
2019-03-28T04:02:23.769Z,23.83
2019-03-28T04:07:26.847Z,23.73
2019-03-28T04:12:30.241Z,23.83
2019-03-28T04:17:33.328Z,23.03
2019-03-28T04:22:37.169Z,23.37
2019-03-28T04:27:40.610Z,24.50
2019-03-28T04:32:44.291Z,23.10
2019-03-28T04:37:47.693Z,23.73
2019-03-28T04:42:50.766Z,23.38
2019-03-28T04:47:54.164Z,23.53
2019-03-28T04:52:57.557Z,22.90
2019-03-28T04:58:01.263Z,23.80
2019-03-28T05:03:04.994Z,24.57
2019-03-28T05:08:08.590Z,23.83
2019-03-28T05:13:12.095Z,23.90
2019-03-28T05:18:15.413Z,23.87
2019-03-28T05:23:18.764Z,23.83
2019-03-28T05:28:22.188Z,24.47
2019-03-28T05:33:25.890Z,25.63
2019-03-28T05:38:28.954Z,26.07
2019-03-28T05:43:32.325Z,25.63
2019-03-28T05:48:35.736Z,27.43
2019-03-28T05:53:39.141Z,26.80
2019-03-28T05:58:42.211Z,26.53
2019-03-28T06:03:45.286Z,27.33
2019-03-28T06:08:48.679Z,25.60
2019-03-28T06:13:52.391Z,26.70
2019-03-28T06:18:55.789Z,26.67
2019-03-28T06:23:58.866Z,27.03
2019-03-28T06:29:02.175Z,27.87
2019-03-28T06:34:05.862Z,27.57
2019-03-28T06:39:09.313Z,29.12
2019-03-28T06:44:12.989Z,27.77
2019-03-28T06:49:16.389Z,29.43
2019-03-28T06:54:20.120Z,30.03
2019-03-28T06:59:36.301Z,28.63
2019-03-28T07:04:28.495Z,31.50
2019-03-28T07:09:31.898Z,28.90
2019-03-28T07:14:34.983Z,30.00
2019-03-28T07:19:38.726Z,30.53
2019-03-28T07:24:42.045Z,28.83
2019-03-28T07:29:50.622Z,27.40
2019-03-28T07:34:50.212Z,28.37
2019-03-28T07:39:53.292Z,28.00
2019-03-28T07:44:58.101Z,27.40
2019-03-28T07:50:01.983Z,25.90
2019-03-28T07:55:06.836Z,25.63
2019-03-28T08:00:12.599Z,25.23
2019-03-28T08:05:16.834Z,24.23
2019-03-28T08:10:20.152Z,24.90
2019-03-28T08:15:23.230Z,26.47
2019-03-28T08:20:26.362Z,27.03
2019-03-28T08:25:29.774Z,27.23
2019-03-28T08:30:37.998Z,25.80
2019-03-28T08:35:41.062Z,26.83
2019-03-28T08:40:44.209Z,27.03
2019-03-28T08:45:47.292Z,27.87
2019-03-28T08:50:50.370Z,27.43
2019-03-28T08:55:53.438Z,28.97
2019-03-28T09:00:56.850Z,28.40
2019-03-28T09:06:00.262Z,29.00
2019-03-28T09:11:03.346Z,29.77
2019-03-28T09:16:06.752Z,29.30
2019-03-28T09:21:09.827Z,30.10
2019-03-28T09:26:13.282Z,29.73
2019-03-28T09:31:20.242Z,30.73
2019-03-28T09:36:21.703Z,32.37
2019-03-28T09:41:25.231Z,30.27
2019-03-28T09:46:28.297Z,30.97
2019-03-28T09:51:31.954Z,31.77
2019-03-28T09:56:35.357Z,30.87
2019-03-28T10:01:38.789Z,30.80
2019-03-28T10:06:42.206Z,31.37
2019-03-28T10:11:45.913Z,30.97
2019-03-28T10:16:49.117Z,32.17
2019-03-28T10:21:52.536Z,31.30
2019-03-28T10:26:55.963Z,31.77
2019-03-28T10:31:59.877Z,32.87
2019-03-28T10:37:03.298Z,30.43
2019-03-28T10:42:06.880Z,29.97
2019-03-28T10:47:10.286Z,30.37
2019-03-28T10:52:14.054Z,28.70
2019-03-28T10:57:29.563Z,29.27
2019-03-28T11:02:22.770Z,31.00
2019-03-28T11:07:26.299Z,30.50
2019-03-28T11:12:30.099Z,27.53
2019-03-28T11:17:33.770Z,29.13
2019-03-28T11:22:38.122Z,26.97
2019-03-28T11:27:41.593Z,28.23
2019-03-28T11:32:45.430Z,24.40
2019-03-28T11:37:48.912Z,19.23
2019-03-28T11:42:52.311Z,21.87
2019-03-28T11:47:55.469Z,16.80
2019-03-28T11:52:59.219Z,21.50
2019-03-28T11:58:02.298Z,16.13
2019-03-28T12:03:05.717Z,14.73
2019-03-28T12:08:08.850Z,14.90
2019-03-28T12:13:12.270Z,17.27
2019-03-28T12:18:15.582Z,18.40
2019-03-28T12:23:19.000Z,17.67
2019-03-28T12:28:22.074Z,17.00
2019-03-28T12:33:25.722Z,16.60
2019-03-28T12:38:29.441Z,16.67
2019-03-28T12:43:32.850Z,17.97
2019-03-28T12:48:36.562Z,19.30
2019-03-28T12:53:40.293Z,19.63
2019-03-28T12:58:44.012Z,19.77
2019-03-28T13:03:47.436Z,17.97
2019-03-28T13:08:50.860Z,18.77
2019-03-28T13:13:54.287Z,17.60
2019-03-28T13:18:58.699Z,16.83
2019-03-28T13:24:07.597Z,15.73
2019-03-28T13:29:09.183Z,16.77
2019-03-28T13:34:12.944Z,17.47
2019-03-28T13:39:16.264Z,15.63
2019-03-28T13:44:19.696Z,17.07
2019-03-28T13:49:23.089Z,16.00
2019-03-28T13:54:26.519Z,15.63
2019-03-28T13:59:29.927Z,14.53
2019-03-28T14:04:33.341Z,15.07
2019-03-28T14:09:36.754Z,15.87
2019-03-28T14:14:40.467Z,15.25
2019-03-28T14:19:43.881Z,16.43
2019-03-28T14:24:47.592Z,17.40
2019-03-28T14:29:51.317Z,15.80
2019-03-28T14:34:54.432Z,16.40
2019-03-28T14:39:57.861Z,15.77
2019-03-28T14:45:01.287Z,16.87
2019-03-28T14:50:05.387Z,18.53
2019-03-28T14:55:09.232Z,16.93
2019-03-28T15:00:18.351Z,17.03
2019-03-28T15:05:21.990Z,17.50
2019-03-28T15:10:25.401Z,16.80
2019-03-28T15:15:28.477Z,17.40
2019-03-28T15:20:31.559Z,17.00
2019-03-28T15:25:35.026Z,16.87
2019-03-28T15:30:38.101Z,17.15
2019-03-28T15:35:41.510Z,17.13
2019-03-28T15:40:44.591Z,16.77
2019-03-28T15:45:47.998Z,17.57
2019-03-28T15:50:52.945Z,17.10
2019-03-28T15:55:56.639Z,16.10
2019-03-28T16:00:59.961Z,15.63
2019-03-28T16:06:03.606Z,16.00
2019-03-28T16:11:06.997Z,16.57
2019-03-28T16:16:10.718Z,15.70
2019-03-28T16:21:13.792Z,15.60
2019-03-28T16:26:16.867Z,16.30
2019-03-28T16:31:20.510Z,16.70
2019-03-28T16:36:23.827Z,16.80
2019-03-28T16:41:26.910Z,16.30
2019-03-28T16:46:30.315Z,17.00
2019-03-28T16:51:34.131Z,15.83
2019-03-28T16:56:37.829Z,15.90
2019-03-28T17:01:41.258Z,15.60
2019-03-28T17:06:44.333Z,16.65
2019-03-28T17:11:48.002Z,16.53
2019-03-28T17:16:51.159Z,15.80
2019-03-28T17:21:54.234Z,16.07
2019-03-28T17:26:57.651Z,16.40
2019-03-28T17:32:01.058Z,16.53
2019-03-28T17:37:05.094Z,17.10
2019-03-28T17:42:08.194Z,16.50
2019-03-28T17:47:11.840Z,16.57
2019-03-28T17:52:14.919Z,16.50
2019-03-28T17:57:17.992Z,16.70
2019-03-28T18:02:21.077Z,16.87
2019-03-28T18:07:24.529Z,17.47
2019-03-28T18:12:27.935Z,18.70
2019-03-28T18:17:31.350Z,18.57
2019-03-28T18:22:34.409Z,19.03
2019-03-28T18:27:38.163Z,19.27
2019-03-28T18:32:41.257Z,18.55
2019-03-28T18:37:44.847Z,20.27
2019-03-28T18:42:48.822Z,19.40
2019-03-28T18:47:52.140Z,17.77
2019-03-28T18:52:55.558Z,19.17
2019-03-28T18:57:58.870Z,19.07
2019-03-28T19:03:01.946Z,18.67
2019-03-28T19:08:05.105Z,19.27
2019-03-28T19:13:08.173Z,18.20
2019-03-28T19:18:11.902Z,19.77
2019-03-28T19:23:15.229Z,18.77
2019-03-28T19:28:28.657Z,19.27
2019-03-28T19:33:23.687Z,19.00
2019-03-28T19:38:27.081Z,20.27
2019-03-28T19:43:30.822Z,19.87
2019-03-28T19:48:34.555Z,18.50
2019-03-28T19:53:37.650Z,18.90
2019-03-28T19:58:41.066Z,19.50
2019-03-28T20:03:46.924Z,21.40
2019-03-28T20:08:49.951Z,20.90
2019-03-28T20:13:53.035Z,19.93
2019-03-28T20:19:02.272Z,19.80
2019-03-28T20:24:05.903Z,22.10
2019-03-28T20:29:09.057Z,21.90
2019-03-28T20:34:12.458Z,21.80
2019-03-28T20:39:15.534Z,23.50
2019-03-28T20:44:19.598Z,21.90
2019-03-28T20:49:22.666Z,20.77
2019-03-28T20:54:25.768Z,22.33
2019-03-28T20:59:28.895Z,22.90
2019-03-28T21:04:32.117Z,23.00
2019-03-28T21:09:35.314Z,20.47
2019-03-28T21:14:38.703Z,22.93
2019-03-28T21:19:41.773Z,25.40
2019-03-28T21:24:44.853Z,24.83
2019-03-28T21:29:49.375Z,23.17
2019-03-28T21:34:56.252Z,23.90
2019-03-28T21:39:58.038Z,25.17
2019-03-28T21:45:01.498Z,23.77
2019-03-28T21:50:07.806Z,23.03
2019-03-28T21:55:11.725Z,24.33
2019-03-28T22:00:16.710Z,24.47
2019-03-28T22:05:20.071Z,23.70
2019-03-28T22:10:23.218Z,23.40
2019-03-28T22:15:26.782Z,24.13
2019-03-28T22:20:29.907Z,23.13
2019-03-28T22:25:32.983Z,24.70
2019-03-28T22:30:36.385Z,24.80
2019-03-28T22:35:40.034Z,24.75
2019-03-28T22:40:44.028Z,25.60
2019-03-28T22:45:47.606Z,25.97
2019-03-28T22:50:51.010Z,25.97
2019-03-28T22:55:54.321Z,26.50
2019-03-28T23:00:57.643Z,26.30
2019-03-28T23:06:01.059Z,25.43
2019-03-28T23:11:04.145Z,24.67
2019-03-28T23:16:07.866Z,24.97
2019-03-28T23:21:11.175Z,25.43
2019-03-28T23:26:14.503Z,25.13
2019-03-28T23:31:17.582Z,24.13
2019-03-28T23:36:20.927Z,24.90
2019-03-28T23:41:24.341Z,24.27
2019-03-28T23:46:27.745Z,25.47
2019-03-28T23:51:31.458Z,24.93
2019-03-28T23:56:35.182Z,24.60
